Fairmont, Oklahoma
Current Conditions -  °F | °C
As of 2:50 PM on Thursday 20 Nov 2014 (Local Time) from KWDG Reporting Station
Scattered Clouds Scattered Clouds  
Wind Chill: 57°   Ceiling: Unl
Heat Index: 57°   Visibility: 10mi
Dew Point: 34°   Wind: 10mph
Humidity: 41%   Direction: 50°NE
Pressure: 30.02"   Gusts: NA
Location:  36.36°N, 97.71°W
Report Text: KWDG 202050Z 05009KT 10SM SCT150 14/01 A3002
Loading
Personal Weather Stations






























Interactive Weather Map New forecast layout! Learn more

10-Day Weather Forecast

Advertisements
Track Severe Weather on mobile